Terminal Aerodrome Forecast
Issued by NWS

Home | Current Version | Previous Version | Text Only | Print | Product List | Glossary On
Versions: 1 2 3 4 5 6 7 8 9 10 11 12 13 14 15 16 17 18 19
000
FTUS45 KPSR 180500
TAFBLH
TAF
KBLH 180522Z 1806/1906 VRB05KT P6SM FEW080
     FM181000 20006KT P6SM SKC
     FM182100 23010G18KT P6SM SKC=

USA.gov is the U.S. government's official web portal to all federal, state and local government web resources and services.